Time;durP1;ratioP1;P1;durP2;ratioP2;P2;SDS_P1;SDS_P2;PMS_P1;PMS_P2;Temp;Humidity;BMP_temperature;BMP_pressure;BME280_temperature;BME280_humidity;BME280_pressure;Samples;Min_cycle;Max_cycle;Signal;HPM_P1;HPM_P2
2021/04/12 00:00:16;;;;;;;7.65;0.95;;;;;;;2.12;100.00;102351.91;6075911;23;20521;-83
2021/04/12 00:02:48;;;;;;;0.52;0.40;;;;;;;2.42;100.00;102348.84;6099708;23;20311;-82
2021/04/12 00:05:31;;;;;;;3.28;0.50;;;;;;;2.43;100.00;102350.59;6098403;23;20003;-82
2021/04/12 00:08:07;;;;;;;1.63;0.32;;;;;;;2.59;100.00;102351.66;6075819;23;20010;-80
2021/04/12 00:10:52;;;;;;;2.90;0.50;;;;;;;2.61;100.00;102352.56;6083438;23;20024;-83
2021/04/12 00:13:43;;;;;;;4.25;0.93;;;;;;;2.43;100.00;102354.94;6074734;23;20006;-83
2021/04/12 00:16:29;;;;;;;1.70;0.57;;;;;;;2.27;100.00;102364.28;6099301;23;20003;-83
2021/04/12 00:19:26;;;;;;;0.98;0.40;;;;;;;2.37;100.00;102360.06;6099295;23;20003;-84
2021/04/12 00:21:56;;;;;;;;;;;;;;;2.24;100.00;102364.22;6074636;23;20033;-84
2021/04/12 00:24:33;;;;;;;2.15;0.63;;;;;;;2.34;100.00;102372.19;6074594;23;19909;-83
2021/04/12 00:27:08;;;;;;;2.42;0.60;;;;;;;2.33;100.00;102370.47;6074768;23;20006;-84
2021/04/12 00:29:40;;;;;;;3.72;0.63;;;;;;;2.28;100.00;102368.66;6074273;23;20006;-84
2021/04/12 00:32:29;;;;;;;2.38;1.20;;;;;;;2.07;100.00;102374.44;6091349;23;20010;-83
2021/04/12 00:35:06;;;;;;;4.95;0.85;;;;;;;1.90;100.00;102371.53;6106196;23;20002;-83
2021/04/12 00:37:40;;;;;;;2.00;0.85;;;;;;;1.95;100.00;102376.84;6129952;23;20435;-83
2021/04/12 00:40:29;;;;;;;3.90;0.90;;;;;;;1.92;100.00;102368.97;6103859;23;20058;-83
2021/04/12 00:43:03;;;;;;;1.48;0.88;;;;;;;1.81;100.00;102374.91;6103911;23;20009;-83
2021/04/12 00:45:48;;;;;;;1.55;0.70;;;;;;;1.75;100.00;102372.19;6103556;23;20056;-84
2021/04/12 00:48:38;;;;;;;2.92;1.45;;;;;;;1.70;100.00;102379.03;6104270;23;20080;-84
2021/04/12 00:51:27;;;;;;;3.05;0.90;;;;;;;1.76;100.00;102380.91;6104884;23;20022;-83
2021/04/12 00:54:23;;;;;;;2.75;1.20;;;;;;;1.65;100.00;102380.69;6106178;23;20080;-84
2021/04/12 00:56:56;;;;;;;3.50;0.80;;;;;;;1.60;100.00;102386.69;6105976;23;20073;-84
2021/04/12 00:59:33;;;;;;;1.35;0.90;;;;;;;1.80;100.00;102383.56;6107890;23;20037;-83
2021/04/12 01:02:22;;;;;;;1.20;0.90;;;;;;;1.63;100.00;102394.56;6134988;23;20016;-84
2021/04/12 01:04:57;;;;;;;2.17;0.98;;;;;;;1.58;100.00;102384.06;6133388;23;20006;-83
2021/04/12 01:07:44;;;;;;;1.20;1.00;;;;;;;1.48;100.00;102382.16;6133636;23;20009;-84
2021/04/12 01:10:25;;;;;;;1.50;0.80;;;;;;;1.43;100.00;102387.28;6107705;23;20010;-84
2021/04/12 01:13:26;;;;;;;0.95;0.80;;;;;;;1.50;100.00;102383.03;6107248;23;20021;-85
2021/04/12 01:16:09;;;;;;;1.95;1.00;;;;;;;1.63;100.00;102389.34;6108264;23;20064;-84
2021/04/12 01:18:53;;;;;;;3.05;1.10;;;;;;;1.55;100.00;102384.88;6134844;23;20092;-85
2021/04/12 01:21:37;;;;;;;1.27;1.02;;;;;;;1.30;100.00;102395.72;6109290;23;20013;-85
2021/04/12 01:24:42;;;;;;;2.65;1.10;;;;;;;1.22;100.00;102390.38;6111814;23;20009;-85
2021/04/12 01:27:41;;;;;;;2.47;1.08;;;;;;;1.23;100.00;102394.72;6107436;23;20249;-84
2021/04/12 01:30:29;;;;;;;3.47;1.33;;;;;;;1.28;100.00;102393.09;6135778;23;20006;-85
2021/04/12 01:36:57;;;;;;;3.55;1.50;;;;;;;1.51;100.00;102406.53;6078983;23;20021;-85
2021/04/12 01:40:07;;;;;;;3.60;1.10;;;;;;;1.46;100.00;102409.91;6052881;23;20076;-85
2021/04/12 01:43:11;;;;;;;2.72;0.98;;;;;;;1.45;100.00;102398.59;6050394;23;20006;-86
2021/04/12 01:46:32;;;;;;;4.50;1.17;;;;;;;1.36;100.00;102414.09;6051883;23;20010;-86
2021/04/12 01:49:53;;;;;;;1.20;0.80;;;;;;;1.21;100.00;102412.06;5961401;23;20024;-85
2021/04/12 01:53:23;;;;;;;3.92;1.50;;;;;;;1.37;100.00;102422.78;5965933;24;20435;-85
2021/04/12 01:57:07;;;;;;;2.10;0.80;;;;;;;1.76;100.00;102426.09;5963238;24;20037;-85
2021/04/12 02:00:07;;;;;;;2.42;0.95;;;;;;;2.25;100.00;102437.28;5967584;24;20008;-84
2021/04/12 02:02:57;;;;;;;1.00;0.47;;;;;;;2.36;100.00;102436.56;5948623;24;20014;-85
2021/04/12 02:05:51;;;;;;;1.20;0.80;;;;;;;2.37;100.00;102443.56;5988172;24;20052;-84
2021/04/12 02:08:47;;;;;;;2.13;0.70;;;;;;;2.39;100.00;102447.94;5966443;24;20012;-85
2021/04/12 02:11:36;;;;;;;1.23;0.70;;;;;;;2.43;100.00;102443.66;5933669;24;20009;-85
2021/04/12 02:14:39;;;;;;;1.20;0.60;;;;;;;2.39;100.00;102450.56;5932923;24;20009;-85
2021/04/12 02:17:20;;;;;;;1.08;0.80;;;;;;;2.38;100.00;102446.19;5932970;24;20021;-86
2021/04/12 02:20:26;;;;;;;4.68;2.47;;;;;;;2.37;100.00;102446.19;5932641;24;20064;-85
2021/04/12 02:23:50;;;;;;;2.22;1.63;;;;;;;2.32;100.00;102452.19;5931794;24;20012;-85
2021/04/12 02:26:19;;;;;;;4.78;0.80;;;;;;;2.30;100.00;102442.59;5976453;24;20019;-85
2021/04/12 02:29:21;;;;;;;3.15;0.75;;;;;;;2.33;100.00;102455.69;5988314;24;20028;-85
2021/04/12 02:32:38;;;;;;;1.33;0.50;;;;;;;2.28;100.00;102460.84;5988440;24;20118;-84
2021/04/12 02:35:31;;;;;;;1.95;0.60;;;;;;;2.12;100.00;102458.84;5988345;24;20008;-84
2021/04/12 02:38:48;;;;;;;2.63;0.43;;;;;;;1.98;100.00;102466.44;5987521;24;20019;-84
2021/04/12 02:41:30;;;;;;;;;;;;;;;1.80;100.00;102466.97;5915548;24;20144;-84
2021/04/12 02:44:23;;;;;;;2.40;0.77;;;;;;;1.67;100.00;102465.03;5991507;24;20351;-85
2021/04/12 02:47:08;;;;;;;6.32;0.73;;;;;;;1.66;100.00;102465.88;5990709;24;20040;-85
2021/04/12 02:50:11;;;;;;;4.18;0.82;;;;;;;1.46;100.00;102467.25;5967395;24;20004;-85
2021/04/12 02:53:05;;;;;;;0.95;0.60;;;;;;;1.34;100.00;102465.25;5989935;23;20106;-84
2021/04/12 02:56:08;;;;;;;2.35;0.70;;;;;;;1.32;100.00;102463.50;5964906;24;20050;-85
2021/04/12 02:58:53;;;;;;;1.85;0.60;;;;;;;1.09;100.00;102466.50;5988313;24;20124;-85
2021/04/12 03:01:41;;;;;;;1.25;0.68;;;;;;;0.94;100.00;102460.97;5965510;24;20040;-85
2021/04/12 03:04:43;;;;;;;1.00;0.70;;;;;;;0.72;100.00;102459.66;6065256;23;20034;-84
2021/04/12 03:07:33;;;;;;;2.47;1.27;;;;;;;0.66;100.00;102469.94;6106572;23;20332;-84
2021/04/12 03:10:19;;;;;;;3.80;1.02;;;;;;;0.52;100.00;102467.00;6107726;23;20093;-84
2021/04/12 03:13:40;;;;;;;1.80;0.70;;;;;;;0.43;100.00;102472.88;6133384;23;20009;-85
2021/04/12 03:16:57;;;;;;;2.10;0.80;;;;;;;0.40;100.00;102475.41;6109685;23;20532;-85
2021/04/12 03:19:56;;;;;;;6.75;1.52;;;;;;;0.40;100.00;102472.81;6069347;23;20003;-84
2021/04/12 03:22:49;;;;;;;4.38;0.98;;;;;;;0.25;100.00;102470.72;6077617;23;20002;-83
2021/04/12 03:25:42;;;;;;;3.47;0.88;;;;;;;0.29;100.00;102463.84;6077833;23;20042;-85
2021/04/12 03:29:03;;;;;;;4.10;1.50;;;;;;;0.30;100.00;102475.13;6101452;23;20007;-84
2021/04/12 03:32:01;;;;;;;4.18;1.13;;;;;;;0.15;100.00;102481.75;6017053;23;20399;-84
2021/04/12 03:34:59;;;;;;;2.35;1.15;;;;;;;0.08;100.00;102473.75;5995039;23;20015;-83
2021/04/12 03:37:48;;;;;;;3.13;2.17;;;;;;;0.18;100.00;102483.53;5993178;23;20534;-83
2021/04/12 03:40:24;;;;;;;3.83;1.10;;;;;;;0.07;100.00;102467.69;6017079;23;20422;-84
2021/04/12 03:43:16;;;;;;;8.60;1.40;;;;;;;0.11;100.00;102479.91;5993217;23;20442;-85
2021/04/12 03:45:51;;;;;;;7.00;2.00;;;;;;;0.18;100.00;102475.72;5994002;23;20007;-85
2021/04/12 03:52:11;;;;;;;2.80;1.90;;;;;;;0.09;100.00;102478.09;6017235;23;20456;-84
2021/04/12 03:55:07;;;;;;;2.47;2.00;;;;;;;-0.03;100.00;102473.50;6019665;23;20507;-85
2021/04/12 03:58:04;;;;;;;5.22;2.85;;;;;;;-0.08;100.00;102475.09;5997585;23;20007;-84
2021/04/12 04:00:50;;;;;;;5.88;2.13;;;;;;;0.07;100.00;102482.41;5996954;23;20008;-84
2021/04/12 04:03:37;;;;;;;4.13;2.08;;;;;;;0.05;100.00;102490.16;6040128;23;20015;-85
2021/04/12 04:06:29;;;;;;;6.00;2.85;;;;;;;0.04;100.00;102491.00;6065206;23;20089;-85
2021/04/12 04:09:33;;;;;;;2.72;2.17;;;;;;;0.24;100.00;102494.06;6073198;23;20011;-84
2021/04/12 04:12:35;;;;;;;5.15;2.67;;;;;;;0.30;100.00;102493.34;6023035;23;20095;-85
2021/04/12 04:15:44;;;;;;;6.32;2.30;;;;;;;0.34;100.00;102506.47;6063104;23;20028;-85
2021/04/12 04:18:29;;;;;;;5.93;2.17;;;;;;;0.41;100.00;102504.91;6052891;23;20014;-86
2021/04/12 04:21:09;;;;;;;12.63;2.30;;;;;;;0.47;100.00;102503.31;6047603;23;20144;-86
2021/04/12 04:24:25;;;;;;;11.07;2.08;;;;;;;0.69;100.00;102496.88;6066973;23;20022;-85
2021/04/12 04:27:50;;;;;;;7.70;2.45;;;;;;;0.69;100.00;102514.22;6070849;23;20026;-86
2021/04/12 04:30:44;;;;;;;2.83;2.13;;;;;;;0.65;100.00;102509.78;6075054;23;20070;-84
2021/04/12 04:33:29;;;;;;;4.97;2.28;;;;;;;0.78;100.00;102506.63;6074145;23;20002;-84
2021/04/12 04:36:02;;;;;;;5.25;2.38;;;;;;;0.81;100.00;102505.84;6074056;23;20045;-83
2021/04/12 04:39:14;;;;;;;5.53;2.40;;;;;;;0.84;100.00;102503.28;6049924;23;20659;-83
2021/04/12 04:41:54;;;;;;;5.65;2.00;;;;;;;0.95;100.00;102505.25;6041394;23;20129;-83
2021/04/12 04:44:49;;;;;;;6.28;2.53;;;;;;;0.97;100.00;102511.41;6106418;23;20002;-83
2021/04/12 04:47:34;;;;;;;12.50;3.65;;;;;;;0.91;100.00;102507.78;6106666;23;20006;-84
2021/04/12 04:50:26;;;;;;;6.15;2.10;;;;;;;1.18;100.00;102510.09;6083327;23;20037;-84
2021/04/12 04:53:01;;;;;;;6.20;2.58;;;;;;;0.99;100.00;102520.09;6108967;23;20009;-84
2021/04/12 04:55:42;;;;;;;6.60;2.38;;;;;;;1.03;100.00;102523.66;6108734;23;20072;-82
2021/04/12 04:58:14;;;;;;;9.40;2.60;;;;;;;1.07;100.00;102519.41;6108510;23;20001;-85
2021/04/12 05:01:04;;;;;;;5.97;2.38;;;;;;;1.04;100.00;102528.91;6135553;23;20077;-84
2021/04/12 05:03:54;;;;;;;5.50;2.58;;;;;;;1.04;100.00;102528.03;6109245;23;20010;-84
2021/04/12 05:06:32;;;;;;;8.93;2.20;;;;;;;1.06;100.00;102536.75;6135504;23;20006;-84
2021/04/12 05:09:28;;;;;;;6.97;3.90;;;;;;;1.20;100.00;102539.63;6134402;23;20006;-84
2021/04/12 05:12:27;;;;;;;7.95;2.25;;;;;;;1.48;100.00;102541.97;6110149;23;19994;-83
2021/04/12 05:14:55;;;;;;;6.72;2.42;;;;;;;1.54;100.00;102546.44;6138116;23;20055;-86
2021/04/12 05:17:58;;;;;;;4.97;1.58;;;;;;;1.53;100.00;102553.38;6111156;23;20002;-85
2021/04/12 05:20:51;;;;;;;5.70;2.33;;;;;;;1.63;100.00;102553.56;6112869;23;20006;-85
2021/04/12 05:23:49;;;;;;;8.70;2.40;;;;;;;1.85;100.00;102558.31;6108424;23;20454;-83
2021/04/12 05:26:53;;;;;;;8.50;3.03;;;;;;;2.07;100.00;102560.50;6111875;23;20420;-84
2021/04/12 05:29:56;;;;;;;12.27;1.95;;;;;;;2.24;100.00;102565.13;6110759;23;20077;-83
2021/04/12 05:32:36;;;;;;;4.70;1.40;;;;;;;2.27;100.00;102568.66;6134245;23;20028;-85
2021/04/12 05:35:23;;;;;;;5.43;1.55;;;;;;;2.34;100.00;102564.41;6110456;23;20002;-84
2021/04/12 05:37:55;;;;;;;;;;;;;;;2.47;100.00;102569.00;6107820;23;20005;-85
2021/04/12 05:40:32;;;;;;;7.65;1.60;;;;;;;2.70;100.00;102577.19;6106044;23;19905;-85
2021/04/12 05:43:20;;;;;;;6.70;1.50;;;;;;;2.59;100.00;102563.09;6106481;23;20021;-85
2021/04/12 05:46:28;;;;;;;4.75;1.42;;;;;;;2.49;100.00;102589.91;6081507;23;20414;-84
2021/04/12 05:49:18;;;;;;;6.90;2.00;;;;;;;2.40;100.00;102588.00;6105548;23;20006;-84
2021/04/12 05:52:18;;;;;;;6.70;0.98;;;;;;;2.33;100.00;102594.84;6105916;23;20182;-82
2021/04/12 05:55:35;;;;;;;5.55;1.58;;;;;;;2.20;100.00;102592.88;6054958;23;20010;-83
2021/04/12 05:58:30;;;;;;;6.18;1.10;;;;;;;2.27;100.00;102601.72;6046061;23;20163;-83
2021/04/12 06:01:43;;;;;;;7.38;1.75;;;;;;;2.53;100.00;102602.16;6045200;23;20011;-83
2021/04/12 06:04:32;;;;;;;7.00;2.67;;;;;;;2.47;100.00;102613.38;5937684;24;20009;-86
2021/04/12 06:07:26;;;;;;;8.98;1.48;;;;;;;2.51;100.00;102636.06;5807046;24;20013;-83
2021/04/12 06:10:33;;;;;;;9.02;1.33;;;;;;;2.43;100.00;102648.09;5823385;24;20041;-85
2021/04/12 06:13:17;;;;;;;9.55;1.73;;;;;;;2.48;100.00;102656.88;5779300;24;20018;-86
2021/04/12 06:16:01;;;;;;;6.68;1.77;;;;;;;2.36;100.00;102666.22;5802027;24;20015;-85
2021/04/12 06:18:57;;;;;;;8.38;1.60;;;;;;;2.41;100.00;102664.56;5780050;24;20007;-83
2021/04/12 06:22:00;;;;;;;5.13;1.52;;;;;;;2.38;100.00;102664.53;5780638;24;20111;-85
2021/04/12 06:24:53;;;;;;;4.95;1.50;;;;;;;2.12;100.00;102670.13;5781586;24;20027;-84
2021/04/12 06:27:43;;;;;;;1.83;1.35;;;;;;;1.73;100.00;102670.19;5804843;24;20015;-84
2021/04/12 06:30:20;;;;;;;5.40;2.80;;;;;;;1.49;100.00;102668.81;5828070;24;20014;-85
2021/04/12 06:33:20;;;;;;;5.15;2.30;;;;;;;1.37;100.00;102676.38;5819524;24;20029;-84
2021/04/12 06:36:03;;;;;;;3.47;1.90;;;;;;;1.28;100.00;102671.81;5850598;24;20014;-84
2021/04/12 06:38:45;;;;;;;8.70;2.13;;;;;;;1.31;100.00;102665.81;5849894;24;20017;-84
2021/04/12 06:41:33;;;;;;;5.53;1.92;;;;;;;1.21;100.00;102674.25;5938108;24;20008;-84
2021/04/12 06:44:29;;;;;;;9.75;2.28;;;;;;;1.27;100.00;102669.19;6044084;23;20010;-82
2021/04/12 06:46:57;;;;;;;15.37;6.60;;;;;;;1.38;100.00;102672.91;6103922;23;20356;-82
2021/04/12 06:49:41;;;;;;;6.13;2.33;;;;;;;1.51;100.00;102676.69;6104412;23;20231;-82
2021/04/12 06:52:34;;;;;;;6.38;2.28;;;;;;;1.70;100.00;102681.41;6100075;23;20018;-81
2021/04/12 06:55:20;;;;;;;5.63;2.60;;;;;;;1.75;100.00;102689.34;6044232;23;20017;-82
2021/04/12 06:58:10;;;;;;;5.43;2.72;;;;;;;1.63;100.00;102689.97;6045263;23;20015;-82
2021/04/12 07:00:39;;;;;;;9.00;3.30;;;;;;;1.54;100.00;102698.47;6044454;23;20015;-82
2021/04/12 07:03:32;;;;;;;9.43;2.92;;;;;;;1.50;100.00;102706.16;6043548;23;20011;-84
2021/04/12 07:06:18;;;;;;;4.50;3.20;;;;;;;1.26;100.00;102716.94;6045832;23;20029;-84
2021/04/12 07:08:59;;;;;;;5.45;3.33;;;;;;;1.14;100.00;102714.00;6016870;23;20454;-84
2021/04/12 07:11:43;;;;;;;6.63;3.10;;;;;;;1.16;100.00;102710.63;6045272;23;20039;-84
2021/04/12 07:14:30;;;;;;;6.68;2.60;;;;;;;1.00;100.00;102719.78;6043548;23;20553;-82
2021/04/12 07:17:12;;;;;;;4.05;2.55;;;;;;;0.83;100.00;102720.19;6044455;23;20398;-83
2021/04/12 07:19:55;;;;;;;7.43;2.53;;;;;;;0.96;100.00;102722.28;6019807;23;20071;-83
2021/04/12 07:22:59;;;;;;;5.47;2.38;;;;;;;1.03;100.00;102713.75;6020731;23;20018;-82
2021/04/12 07:26:22;;;;;;;4.95;1.90;;;;;;;1.05;100.00;102704.25;6026687;23;20092;-82
2021/04/12 07:29:15;;;;;;;5.90;2.45;;;;;;;1.06;100.00;102708.63;5948312;24;20016;-83
2021/04/12 07:32:03;;;;;;;4.80;2.65;;;;;;;1.07;100.00;102712.13;5937064;24;20008;-84
2021/04/12 07:34:31;;;;;;;6.88;2.95;;;;;;;1.03;100.00;102727.66;5960910;24;20009;-83
2021/04/12 07:37:31;;;;;;;8.13;2.22;;;;;;;1.00;100.00;102732.81;5960773;24;20013;-82
2021/04/12 07:40:35;;;;;;;2.20;1.75;;;;;;;0.87;100.00;102727.25;5956640;24;20578;-83
2021/04/12 07:43:45;;;;;;;3.35;2.50;;;;;;;0.93;100.00;102733.47;5959687;24;20052;-82
2021/04/12 07:46:23;;;;;;;5.25;2.05;;;;;;;0.87;100.00;102730.72;5957813;24;20083;-82
2021/04/12 07:49:11;;;;;;;6.22;2.67;;;;;;;0.83;100.00;102731.47;6010963;23;20015;-81
2021/04/12 07:52:00;;;;;;;5.57;2.58;;;;;;;0.82;100.00;102737.53;6013274;23;20039;-84
2021/04/12 07:54:47;;;;;;;4.57;2.97;;;;;;;0.76;100.00;102735.66;5999836;23;20709;-83
2021/04/12 07:57:43;;;;;;;4.78;2.78;;;;;;;0.73;100.00;102740.75;5990061;23;20048;-83
2021/04/12 08:00:32;;;;;;;6.97;3.33;;;;;;;0.72;100.00;102741.59;6017143;23;20014;-82
2021/04/12 08:03:46;;;;;;;5.15;3.33;;;;;;;0.70;100.00;102748.50;6065112;23;20007;-83
2021/04/12 08:06:39;;;;;;;5.40;3.25;;;;;;;0.49;100.00;102750.50;6091728;23;20003;-82
2021/04/12 09:52:42;;;;;;;3.67;2.17;;;;;;;3.95;100.00;102804.69;6138608;23;20049;-84
2021/04/12 09:55:55;;;;;;;4.57;1.90;;;;;;;3.54;100.00;102813.69;6111136;23;20642;-84
2021/04/12 09:58:33;;;;;;;3.42;2.72;;;;;;;4.07;100.00;102808.38;6130036;23;20006;-85
2021/04/12 10:01:28;;;;;;;2.33;1.90;;;;;;;4.01;100.00;102803.03;6135629;23;20006;-84
2021/04/12 10:04:31;;;;;;;4.82;1.95;;;;;;;4.27;100.00;102806.03;6110683;23;20010;-83
2021/04/12 10:07:17;;;;;;;2.67;2.00;;;;;;;4.62;100.00;102803.84;6110181;23;20002;-86
2021/04/12 10:09:58;;;;;;;5.53;1.60;;;;;;;4.63;100.00;102804.72;6108334;23;20070;-84
2021/04/12 10:12:42;;;;;;;5.70;2.50;;;;;;;4.43;100.00;102812.34;6108701;23;20644;-85
2021/04/12 10:15:39;;;;;;;4.78;2.63;;;;;;;4.33;100.00;102816.56;6135470;23;20679;-84
2021/04/12 10:18:31;;;;;;;2.17;1.83;;;;;;;4.91;100.00;102811.13;6111310;23;20026;-85
2021/04/12 10:21:21;;;;;;;3.17;2.20;;;;;;;5.30;100.00;102821.13;6110891;23;20016;-85
2021/04/12 10:24:03;;;;;;;6.15;1.95;;;;;;;4.86;100.00;102808.44;6133162;23;20118;-83
2021/04/12 10:26:48;;;;;;;5.72;1.63;;;;;;;5.35;100.00;102819.41;6107954;23;20029;-83
2021/04/12 10:30:11;;;;;;;1.70;1.38;;;;;;;5.70;100.00;102818.81;6106636;23;20002;-84
2021/04/12 10:32:58;;;;;;;3.47;2.42;;;;;;;7.34;100.00;102808.97;6019885;23;20067;-85
2021/04/12 10:35:48;;;;;;;2.17;1.40;;;;;;;8.91;100.00;102808.53;6042701;23;20380;-85
2021/04/12 10:39:09;;;;;;;2.20;1.40;;;;;;;7.61;100.00;102816.84;6044318;23;20011;-84
2021/04/12 10:42:01;;;;;;;9.18;4.22;;;;;;;8.26;100.00;102799.16;6046692;23;20063;-86
2021/04/12 10:44:39;;;;;;;9.00;2.33;;;;;;;8.57;100.00;102806.06;6022664;23;20019;-84
2021/04/12 10:47:30;;;;;;;6.05;2.53;;;;;;;9.34;100.00;102793.28;6021246;23;20461;-84
2021/04/12 10:50:03;;;;;;;3.78;2.28;;;;;;;10.47;100.00;102783.28;6025744;23;20040;-84
2021/04/12 10:52:40;;;;;;;6.03;2.65;;;;;;;10.08;100.00;102793.41;6027287;23;20390;-86
2021/04/12 10:55:20;;;;;;;6.00;3.13;;;;;;;10.09;100.00;102787.25;5995979;23;20019;-85
2021/04/12 10:58:19;;;;;;;3.40;2.40;;;;;;;10.13;100.00;102790.72;5997836;23;20043;-85
2021/04/12 11:01:02;;;;;;;3.40;2.45;;;;;;;8.65;100.00;102797.28;5996610;23;20012;-86
2021/04/12 11:03:42;;;;;;;5.00;3.10;;;;;;;10.17;100.00;102783.63;6039541;23;20062;-83
2021/04/12 11:06:20;;;;;;;5.05;3.17;;;;;;;9.98;100.00;102791.75;6078071;23;20093;-84
2021/04/12 11:09:00;;;;;;;3.97;2.95;;;;;;;10.29;100.00;102763.28;6104502;23;20033;-84
2021/04/12 11:12:09;;;;;;;3.75;2.72;;;;;;;9.95;100.00;102764.53;6079637;23;20018;-83
2021/04/12 11:14:58;;;;;;;3.97;2.42;;;;;;;9.40;100.00;102792.34;6102507;23;20006;-83
2021/04/12 11:17:59;;;;;;;5.05;3.20;;;;;;;7.87;100.00;102792.25;6100188;23;20050;-85
2021/04/12 11:20:38;;;;;;;6.68;3.55;;;;;;;10.44;100.00;102786.00;6068122;23;20003;-82
2021/04/12 11:24:04;;;;;;;3.42;3.13;;;;;;;10.79;100.00;102787.25;6078770;23;20006;-83
2021/04/12 11:27:17;;;;;;;4.70;3.13;;;;;;;10.55;100.00;102792.00;5964067;24;20034;-84
2021/04/12 11:30:06;;;;;;;4.13;2.83;;;;;;;9.95;100.00;102788.31;5856269;24;20006;-85
2021/04/12 11:32:54;;;;;;;3.25;1.77;;;;;;;9.43;100.00;102794.94;5849962;24;20010;-83
2021/04/12 11:36:11;;;;;;;8.13;3.22;;;;;;;10.26;100.00;102792.38;5830924;24;20063;-82
2021/04/12 11:38:53;;;;;;;3.40;3.10;;;;;;;9.47;100.00;102791.41;5798119;24;20467;-83
2021/04/12 11:41:29;;;;;;;3.72;2.80;;;;;;;8.23;100.00;102786.88;5798885;24;20011;-81
2021/04/12 11:44:01;;;;;;;7.28;3.53;;;;;;;7.44;100.00;102808.09;5800004;24;20015;-83
2021/04/12 11:46:52;;;;;;;5.25;3.47;;;;;;;6.48;100.00;102806.16;5754271;24;20042;-81
2021/04/12 11:49:53;;;;;;;4.28;3.30;;;;;;;6.04;100.00;102804.19;5785449;24;20064;-80
2021/04/12 11:52:29;;;;;;;5.45;3.42;;;;;;;6.00;100.00;102809.44;5796338;24;20730;-84
2021/04/12 11:55:48;;;;;;;5.20;3.40;;;;;;;5.80;100.00;102815.38;5796654;24;20047;-82
2021/04/12 12:02:56;;;;;;;9.45;4.60;;;;;;;5.72;100.00;102822.31;5797279;24;20378;-82
2021/04/12 12:05:36;;;;;;;7.72;4.10;;;;;;;5.79;100.00;102818.00;5675000;25;20087;-82
2021/04/12 12:08:40;;;;;;;7.93;4.18;;;;;;;5.62;100.00;102818.78;5769718;24;20008;-83
2021/04/12 12:11:18;;;;;;;6.90;3.60;;;;;;;8.71;100.00;102815.69;5754895;24;20055;-83
2021/04/12 12:13:54;;;;;;;4.90;3.17;;;;;;;10.09;100.00;102810.13;5828101;24;20015;-83
2021/04/12 12:16:34;;;;;;;5.22;3.65;;;;;;;11.79;100.00;102803.25;5832381;24;20026;-85
2021/04/12 12:19:08;;;;;;;12.82;2.92;;;;;;;12.39;96.26;102810.94;5830995;24;20022;-83
2021/04/12 12:21:41;;;;;;;8.27;2.65;;;;;;;11.53;87.78;102811.66;5828655;24;20018;-82
2021/04/12 12:24:24;;;;;;;7.07;3.03;;;;;;;9.64;91.75;102820.31;5826574;24;20011;-83
2021/04/12 12:27:20;;;;;;;7.68;2.83;;;;;;;10.78;94.39;102818.13;5828053;24;20003;-84
2021/04/12 12:29:52;;;;;;;5.45;3.10;;;;;;;13.15;86.92;102820.75;5825118;24;20132;-81
2021/04/12 12:32:32;;;;;;;3.13;1.80;;;;;;;11.90;65.59;102809.28;5825925;24;20011;-81
2021/04/12 12:35:01;;;;;;;4.03;1.90;;;;;;;11.65;69.82;102831.78;5852004;24;20656;-82
2021/04/12 12:38:05;;;;;;;5.10;1.52;;;;;;;10.25;68.64;102824.09;5881155;24;20016;-80
2021/04/12 12:40:55;;;;;;;5.80;1.60;;;;;;;9.36;72.23;102817.00;6012008;23;20511;-84
2021/04/12 12:43:28;;;;;;;8.73;1.30;;;;;;;7.85;76.69;102851.94;6095836;23;20003;-81
2021/04/12 12:46:05;;;;;;;5.35;1.75;;;;;;;7.50;78.03;102845.81;6099792;23;20013;-83
2021/04/12 12:48:34;;;;;;;4.88;1.88;;;;;;;9.33;70.19;102836.38;6073041;23;20009;-83
2021/04/12 12:51:16;;;;;;;8.32;2.40;;;;;;;11.33;65.44;102837.59;6072807;23;19998;-82
2021/04/12 12:54:03;;;;;;;1.55;1.23;;;;;;;8.91;70.84;102836.66;6090682;23;20032;-82
2021/04/12 12:56:32;;;;;;;4.65;2.30;;;;;;;10.10;68.41;102846.25;6098620;23;20010;-82
2021/04/12 12:59:06;;;;;;;10.98;3.08;;;;;;;11.20;65.29;102846.66;6098229;23;20009;-82
2021/04/12 13:02:21;;;;;;;6.93;2.28;;;;;;;11.32;62.67;102842.03;6089206;23;20030;-85
2021/04/12 13:05:17;;;;;;;2.80;1.60;;;;;;;8.61;70.94;102843.84;6102576;23;20006;-84
2021/04/12 13:08:05;;;;;;;4.45;1.80;;;;;;;6.92;75.85;102845.69;6103478;23;20027;-83
2021/04/12 13:10:49;;;;;;;6.22;1.92;;;;;;;6.99;77.07;102850.13;6102496;23;20097;-82
2021/04/12 13:13:23;;;;;;;8.40;2.45;;;;;;;7.55;76.01;102863.34;6103735;23;20470;-83
2021/04/12 13:15:50;;;;;;;2.60;1.58;;;;;;;7.66;71.68;102873.00;6105462;23;20006;-84
2021/04/12 13:18:21;;;;;;;4.50;2.00;;;;;;;10.06;67.65;102860.38;6104474;23;20096;-83
2021/04/12 13:21:20;;;;;;;4.78;2.30;;;;;;;11.18;64.99;102843.13;6104034;23;20034;-85
2021/04/12 13:23:45;;;;;;;6.60;2.28;;;;;;;9.09;72.50;102855.03;6100006;23;20009;-83
2021/04/12 13:33:07;;;;;;;2.92;1.52;;;;;;;10.89;55.90;102853.25;6072367;23;20034;-82
2021/04/12 13:35:36;;;;;;;4.35;2.60;;;;;;;11.68;52.34;102837.88;6070716;23;20081;-80
2021/04/12 13:38:14;;;;;;;7.10;2.90;;;;;;;11.88;50.46;102858.75;6068018;23;20006;-83
2021/04/12 13:40:46;;;;;;;7.18;3.20;;;;;;;9.52;56.83;102860.00;6042424;23;20051;-81
2021/04/12 13:48:47;;;;;;;5.57;1.90;;;;;;;9.84;51.68;102860.59;6152350;23;20021;-81
2021/04/12 13:52:04;;;;;;;3.45;1.52;;;;;;;8.20;57.37;102865.91;6131921;23;20006;-83
2021/04/12 13:54:58;;;;;;;2.70;2.03;;;;;;;7.18;60.94;102873.84;6134907;23;20017;-83
2021/04/12 13:58:09;;;;;;;7.35;2.33;;;;;;;7.41;62.00;102884.38;6132803;23;20247;-85
2021/04/12 14:00:50;;;;;;;4.47;2.50;;;;;;;10.31;56.39;102871.59;6046057;23;20102;-83
2021/04/12 14:04:31;;;;;;;7.07;2.50;;;;;;;10.42;52.88;102872.34;6043294;23;20041;-83
2021/04/12 14:07:22;;;;;;;4.80;1.90;;;;;;;10.25;51.66;102866.41;5983122;24;20541;-83
2021/04/12 14:10:04;;;;;;;8.63;2.30;;;;;;;10.45;51.65;102863.53;5980902;23;20012;-83
2021/04/12 14:12:43;;;;;;;4.10;1.70;;;;;;;11.55;49.96;102856.69;5958032;24;20008;-84
2021/04/12 14:19:29;;;;;;;3.85;1.80;;;;;;;13.40;42.20;102848.53;5846068;24;20029;-84
2021/04/12 14:25:41;;;;;;;4.20;2.25;;;;;;;12.34;41.45;102863.19;5844283;24;20025;-82
2021/04/12 14:28:18;;;;;;;2.28;1.83;;;;;;;11.67;43.03;102857.34;5845035;24;20006;-84
2021/04/12 14:30:50;;;;;;;7.32;2.20;;;;;;;13.64;40.18;102862.09;5842443;24;20025;-84
2021/04/12 14:33:24;;;;;;;2.67;1.73;;;;;;;10.73;40.69;102880.78;5842950;24;20085;-84
2021/04/12 14:36:12;;;;;;;2.75;1.83;;;;;;;11.37;39.13;102868.44;5845778;24;20388;-84
2021/04/12 14:38:46;;;;;;;3.78;2.00;;;;;;;12.37;38.44;102872.88;5893338;24;20349;-83
2021/04/12 14:41:28;;;;;;;4.95;2.00;;;;;;;11.36;38.40;102875.50;5925852;24;20125;-84
2021/04/12 14:44:49;;;;;;;6.53;2.00;;;;;;;13.42;37.06;102867.06;5925657;24;20009;-85
2021/04/12 14:47:36;;;;;;;5.15;1.92;;;;;;;13.06;35.98;102867.00;5956522;24;20020;-83
2021/04/12 14:50:16;;;;;;;2.65;1.42;;;;;;;11.95;37.51;102878.09;5980413;24;20020;-81
2021/04/12 14:52:44;;;;;;;4.43;2.05;;;;;;;12.60;36.54;102875.97;6024090;23;20018;-81
2021/04/12 14:55:18;;;;;;;5.32;2.42;;;;;;;12.77;36.98;102877.38;6156661;23;20068;-83
2021/04/12 14:57:53;;;;;;;6.75;2.17;;;;;;;13.01;36.68;102875.97;6159340;23;20048;-83
2021/04/12 15:01:32;;;;;;;7.72;2.85;;;;;;;12.56;37.65;102868.97;6157561;23;20009;-83
2021/04/12 15:04:30;;;;;;;13.10;3.20;;;;;;;11.90;38.72;102885.25;5988078;23;20018;-83
2021/04/12 15:07:08;;;;;;;5.05;2.80;;;;;;;12.11;39.30;102886.66;5989355;23;20022;-82
2021/04/12 15:10:00;;;;;;;4.25;2.60;;;;;;;12.81;36.37;102864.00;6010914;23;20007;-85
2021/04/12 15:12:28;;;;;;;7.38;2.85;;;;;;;13.20;34.37;102878.19;5987424;23;20050;-84
2021/04/12 15:15:12;;;;;;;4.22;2.22;;;;;;;12.93;35.57;102881.44;5988627;23;20050;-83
2021/04/12 15:17:46;;;;;;;5.55;2.45;;;;;;;12.29;37.14;102880.97;5997334;23;20031;-84
2021/04/12 15:20:38;;;;;;;4.53;3.10;;;;;;;12.91;35.72;102881.47;6018844;23;20094;-84
2021/04/12 15:23:19;;;;;;;4.13;1.92;;;;;;;13.94;35.80;102882.56;5992617;23;20059;-84
2021/04/12 15:25:48;;;;;;;7.10;2.63;;;;;;;14.34;33.53;102885.94;6018772;23;20461;-83